createdAt,value
2023-03-17T00:02:24.919Z,8.25
2023-03-17T00:05:31.555Z,8.39
2023-03-17T00:08:35.712Z,8.28
2023-03-17T00:11:37.487Z,8.23
2023-03-17T00:14:38.877Z,8.31
2023-03-17T00:17:42.227Z,8.32
2023-03-17T00:20:44.778Z,8.27
2023-03-17T00:23:50.584Z,8.25
2023-03-17T00:26:51.976Z,8.30
2023-03-17T00:29:53.424Z,8.35
2023-03-17T00:32:58.010Z,8.28
2023-03-17T00:35:59.556Z,8.26
2023-03-17T00:39:01.389Z,8.26
2023-03-17T00:42:02.887Z,8.35
2023-03-17T00:45:06.365Z,8.31
2023-03-17T00:48:17.351Z,8.31
2023-03-17T00:51:18.741Z,8.33
2023-03-17T00:54:20.669Z,8.33
2023-03-17T00:57:22.639Z,8.36
2023-03-17T01:00:27.633Z,8.26
2023-03-17T01:03:29.371Z,8.30
2023-03-17T01:06:30.820Z,8.31
2023-03-17T01:09:33.774Z,8.34
2023-03-17T01:12:35.179Z,8.29
2023-03-17T01:15:37.281Z,8.34
2023-03-17T01:18:39.630Z,8.32
2023-03-17T01:21:41.555Z,8.33
2023-03-17T01:24:43.157Z,8.33
2023-03-17T01:27:46.396Z,8.36
2023-03-17T01:30:47.934Z,8.35
2023-03-17T01:33:49.321Z,8.40
2023-03-17T01:36:50.872Z,8.37
2023-03-17T01:39:52.582Z,8.28
2023-03-17T01:43:02.152Z,8.24
2023-03-17T01:46:14.701Z,8.26
2023-03-17T01:49:19.303Z,8.24
2023-03-17T01:52:22.835Z,8.26
2023-03-17T01:55:24.737Z,8.30
2023-03-17T01:58:26.570Z,8.30
2023-03-17T02:01:33.565Z,8.27
2023-03-17T02:04:35.333Z,8.22
2023-03-17T02:07:37.562Z,8.16
2023-03-17T02:10:40.933Z,8.20
2023-03-17T02:13:44.558Z,8.30
2023-03-17T02:16:48.532Z,8.21
2023-03-17T02:19:51.753Z,8.24
2023-03-17T02:22:54.826Z,8.16
2023-03-17T02:25:56.272Z,8.15
2023-03-17T02:28:58.016Z,8.15
2023-03-17T02:32:00.399Z,8.11
2023-03-17T02:35:02.414Z,8.14
2023-03-17T02:38:04.352Z,8.18
2023-03-17T02:41:07.140Z,8.16
2023-03-17T02:44:09.695Z,8.06
2023-03-17T02:47:12.305Z,8.08
2023-03-17T02:50:22.087Z,7.95
2023-03-17T02:53:23.483Z,7.98
2023-03-17T02:56:25.204Z,7.92
2023-03-17T02:59:27.583Z,7.86
2023-03-17T03:02:29.023Z,7.89
2023-03-17T03:05:30.469Z,7.80
2023-03-17T03:08:32.024Z,7.75
2023-03-17T03:11:33.423Z,7.73
2023-03-17T03:14:34.822Z,7.71
2023-03-17T03:17:36.292Z,7.70
2023-03-17T03:20:38.245Z,7.75
2023-03-17T03:23:39.702Z,7.75
2023-03-17T03:26:41.316Z,7.80
2023-03-17T03:29:42.781Z,7.69
2023-03-17T03:32:44.200Z,7.62
2023-03-17T03:35:45.830Z,7.60
2023-03-17T03:38:47.245Z,7.59
2023-03-17T03:41:48.696Z,7.60
2023-03-17T03:44:50.075Z,7.60
2023-03-17T03:47:51.585Z,7.57
2023-03-17T03:51:01.352Z,7.66
2023-03-17T03:54:02.832Z,7.53
2023-03-17T03:57:04.624Z,7.50
2023-03-17T04:00:07.426Z,7.46
2023-03-17T04:03:14.135Z,7.40
2023-03-17T04:06:16.233Z,7.39
2023-03-17T04:09:17.655Z,7.36
2023-03-17T04:12:19.144Z,7.36
2023-03-17T04:15:21.052Z,7.36
2023-03-17T04:18:22.543Z,7.34
2023-03-17T04:21:23.943Z,7.34
2023-03-17T04:24:25.594Z,7.35
2023-03-17T04:27:27.029Z,7.32
2023-03-17T04:30:29.015Z,7.32
2023-03-17T04:33:30.580Z,7.31
2023-03-17T04:36:32.706Z,7.31
2023-03-17T04:39:34.129Z,7.27
2023-03-17T04:42:36.669Z,7.33
2023-03-17T04:45:38.670Z,7.39
2023-03-17T04:48:40.271Z,7.36
2023-03-17T04:51:41.955Z,7.34
2023-03-17T04:54:43.564Z,7.38
2023-03-17T04:57:44.975Z,7.39
2023-03-17T05:00:46.799Z,7.30
2023-03-17T05:03:48.981Z,7.26
2023-03-17T05:06:51.780Z,7.30
2023-03-17T05:09:53.250Z,7.30
2023-03-17T05:12:54.646Z,7.25
2023-03-17T05:15:56.898Z,7.24
2023-03-17T05:18:58.467Z,7.20
2023-03-17T05:21:59.892Z,7.17
2023-03-17T05:25:01.322Z,7.23
2023-03-17T05:28:03.151Z,7.31
2023-03-17T05:31:05.296Z,7.22
2023-03-17T05:34:06.778Z,7.20
2023-03-17T05:37:08.607Z,7.21
2023-03-17T05:40:12.291Z,7.21
2023-03-17T05:43:13.942Z,7.19
2023-03-17T05:46:15.470Z,7.19
2023-03-17T05:49:16.933Z,7.17
2023-03-17T05:52:18.394Z,7.15
2023-03-17T05:55:20.481Z,7.16
2023-03-17T05:58:22.024Z,7.15
2023-03-17T06:01:23.732Z,7.22
2023-03-17T06:04:26.289Z,7.20
2023-03-17T06:07:33.093Z,7.29
2023-03-17T06:10:39.691Z,7.27
2023-03-17T06:13:41.479Z,7.28
2023-03-17T06:16:43.088Z,7.29
2023-03-17T06:19:44.482Z,7.35
2023-03-17T06:23:02.365Z,7.39
2023-03-17T06:26:05.725Z,7.45
2023-03-17T06:29:11.618Z,7.41
2023-03-17T06:32:20.366Z,7.46
2023-03-17T06:35:23.248Z,7.47
2023-03-17T06:38:24.692Z,7.58
2023-03-17T06:41:26.490Z,7.71
2023-03-17T06:44:27.885Z,7.76
2023-03-17T06:47:29.473Z,7.77
2023-03-17T06:50:30.933Z,7.78
2023-03-17T06:53:32.390Z,7.84
2023-03-17T06:56:33.867Z,7.86
2023-03-17T06:59:35.718Z,7.94
2023-03-17T07:02:37.141Z,8.02
2023-03-17T07:05:39.323Z,8.12
2023-03-17T07:08:41.447Z,8.23
2023-03-17T07:11:42.876Z,8.40
2023-03-17T07:14:44.320Z,8.52
2023-03-17T07:17:46.899Z,8.59
2023-03-17T07:20:48.320Z,8.75
2023-03-17T07:23:49.711Z,8.81
2023-03-17T07:26:51.392Z,8.85
2023-03-17T07:29:53.333Z,8.93
2023-03-17T07:32:55.236Z,8.94
2023-03-17T07:35:56.823Z,8.89
2023-03-17T07:38:58.359Z,8.85
2023-03-17T07:41:59.768Z,8.82
2023-03-17T07:45:01.380Z,8.89
2023-03-17T07:48:05.045Z,8.79
2023-03-17T07:51:07.309Z,8.69
2023-03-17T07:54:15.084Z,8.84
2023-03-17T07:57:16.741Z,8.99
2023-03-17T08:00:19.506Z,9.26
2023-03-17T08:03:20.999Z,9.49
2023-03-17T08:06:25.206Z,9.27
2023-03-17T08:09:27.018Z,9.24
2023-03-17T08:12:29.020Z,9.19
2023-03-17T08:15:31.185Z,9.19
2023-03-17T08:18:32.594Z,9.27
2023-03-17T08:21:34.005Z,9.31
2023-03-17T08:24:36.192Z,9.45
2023-03-17T08:27:37.658Z,9.45
2023-03-17T08:30:39.466Z,9.52
2023-03-17T08:33:42.440Z,9.58
2023-03-17T08:36:44.101Z,9.56
2023-03-17T08:39:45.594Z,9.49
2023-03-17T08:42:49.078Z,9.58
2023-03-17T08:45:50.611Z,9.60
2023-03-17T08:48:54.946Z,9.82
2023-03-17T08:51:56.411Z,10.31
2023-03-17T08:54:58.117Z,10.61
2023-03-17T08:57:59.513Z,10.88
2023-03-17T09:01:02.810Z,11.28
2023-03-17T09:04:04.298Z,11.46
2023-03-17T09:07:08.370Z,11.61
2023-03-17T09:10:12.366Z,11.42
2023-03-17T09:13:16.208Z,11.83
2023-03-17T09:16:18.635Z,11.70
2023-03-17T09:19:20.232Z,11.79
2023-03-17T09:22:22.012Z,11.97
2023-03-17T09:25:23.668Z,12.25
2023-03-17T09:28:25.269Z,12.43
2023-03-17T09:31:27.124Z,12.58
2023-03-17T09:34:28.547Z,12.50
2023-03-17T09:37:30.211Z,12.63
2023-03-17T09:40:35.882Z,12.52
2023-03-17T09:44:05.697Z,12.49
2023-03-17T09:47:28.543Z,12.48
2023-03-17T09:50:53.924Z,12.78
2023-03-17T09:54:15.270Z,13.07
2023-03-17T09:57:24.689Z,13.12
2023-03-17T10:00:29.236Z,13.14
2023-03-17T10:03:31.284Z,13.31
2023-03-17T10:06:38.743Z,13.45
2023-03-17T10:10:14.756Z,13.78
2023-03-17T10:13:28.296Z,13.90
2023-03-17T10:16:40.490Z,14.04
2023-03-17T10:19:45.280Z,14.54
2023-03-17T10:22:50.226Z,14.56
2023-03-17T10:25:52.655Z,14.56
2023-03-17T10:28:54.809Z,14.64
2023-03-17T10:31:58.569Z,14.74
2023-03-17T10:35:01.273Z,14.78
2023-03-17T10:38:23.411Z,15.05
2023-03-17T10:41:25.915Z,15.38
2023-03-17T10:44:41.932Z,15.42
2023-03-17T10:47:45.907Z,15.79
2023-03-17T10:50:49.290Z,15.76
2023-03-17T10:53:53.061Z,15.79
2023-03-17T10:57:06.076Z,15.94
2023-03-17T11:00:19.934Z,16.18
2023-03-17T11:03:27.908Z,16.40
2023-03-17T11:06:39.137Z,16.61
2023-03-17T11:09:41.063Z,16.81
2023-03-17T11:12:43.068Z,16.81
2023-03-17T11:15:52.427Z,16.62
2023-03-17T11:18:59.605Z,16.74
2023-03-17T11:22:15.705Z,16.62
2023-03-17T11:25:23.419Z,16.71
2023-03-17T11:28:30.949Z,16.72
2023-03-17T11:31:42.394Z,16.57
2023-03-17T11:34:58.902Z,16.45
2023-03-17T11:38:15.690Z,16.65
2023-03-17T11:41:34.947Z,16.88
2023-03-17T11:45:01.215Z,16.85
2023-03-17T11:48:13.659Z,17.01
2023-03-17T11:51:27.331Z,17.40
2023-03-17T11:54:43.409Z,17.55
2023-03-17T11:57:53.316Z,17.29
2023-03-17T12:00:58.306Z,17.01
2023-03-17T12:04:18.325Z,16.92
2023-03-17T12:07:46.715Z,16.87
2023-03-17T12:10:54.522Z,16.75
2023-03-17T12:14:01.562Z,16.86
2023-03-17T12:17:12.326Z,16.87
2023-03-17T12:20:19.920Z,16.76
2023-03-17T12:23:34.315Z,16.84
2023-03-17T12:26:47.677Z,16.94
2023-03-17T12:30:06.406Z,16.87
2023-03-17T12:33:21.267Z,16.96
2023-03-17T12:36:23.061Z,16.98
2023-03-17T12:39:31.344Z,17.05
2023-03-17T12:42:46.906Z,17.06
2023-03-17T12:46:11.499Z,17.13
2023-03-17T12:49:34.243Z,17.24
2023-03-17T12:52:54.591Z,17.32
2023-03-17T12:56:08.852Z,17.27
2023-03-17T12:59:17.195Z,17.19
2023-03-17T13:02:27.840Z,17.12
2023-03-17T13:05:32.642Z,17.34
2023-03-17T13:08:37.966Z,17.27
2023-03-17T13:11:42.266Z,17.25
2023-03-17T13:14:46.269Z,17.19
2023-03-17T13:17:48.189Z,17.25
2023-03-17T13:21:11.163Z,17.27
2023-03-17T13:24:15.303Z,17.27
2023-03-17T13:27:32.329Z,17.24
2023-03-17T13:30:36.687Z,17.16
2023-03-17T13:33:51.305Z,17.24
2023-03-17T13:37:14.588Z,17.09
2023-03-17T13:40:25.180Z,17.18
2023-03-17T13:43:56.717Z,17.21
2023-03-17T13:47:20.583Z,17.26
2023-03-17T13:50:25.440Z,17.24
2023-03-17T13:53:31.599Z,17.39
2023-03-17T13:56:41.901Z,17.31
2023-03-17T14:00:16.236Z,17.20
2023-03-17T14:03:19.369Z,17.28
2023-03-17T14:06:24.290Z,17.30
2023-03-17T14:09:39.793Z,17.28
2023-03-17T14:12:57.791Z,17.22
2023-03-17T14:16:04.618Z,17.24
2023-03-17T14:19:20.970Z,17.12
2023-03-17T14:22:24.759Z,17.05
2023-03-17T14:25:32.827Z,17.13
2023-03-17T14:28:35.420Z,17.07
2023-03-17T14:31:36.975Z,16.99
2023-03-17T14:34:48.035Z,16.98
2023-03-17T14:37:49.553Z,16.95
2023-03-17T14:41:01.745Z,16.93
2023-03-17T14:44:03.291Z,16.96
2023-03-17T14:47:12.589Z,16.89
2023-03-17T14:50:20.578Z,16.83
2023-03-17T14:53:24.185Z,16.88
2023-03-17T14:56:41.195Z,16.85
2023-03-17T14:59:54.755Z,16.82
2023-03-17T15:02:58.615Z,16.78
2023-03-17T15:06:20.235Z,16.74
2023-03-17T15:09:27.349Z,16.73
2023-03-17T15:12:29.838Z,16.72
2023-03-17T15:15:37.069Z,16.74
2023-03-17T15:18:38.554Z,16.72
2023-03-17T15:21:42.279Z,16.70
2023-03-17T15:24:44.054Z,16.68
2023-03-17T15:27:46.778Z,16.72
2023-03-17T15:30:51.400Z,16.64
2023-03-17T15:33:53.163Z,16.66
2023-03-17T15:36:55.557Z,16.58
2023-03-17T15:39:58.072Z,16.57
2023-03-17T15:43:00.474Z,16.50
2023-03-17T15:46:06.764Z,16.50
2023-03-17T15:49:12.173Z,16.47
2023-03-17T15:52:21.414Z,16.44
2023-03-17T15:55:25.243Z,16.33
2023-03-17T15:58:27.003Z,16.33
2023-03-17T16:01:28.693Z,16.30
2023-03-17T16:04:30.349Z,16.19
2023-03-17T16:07:33.343Z,16.15
2023-03-17T16:10:34.865Z,16.26
2023-03-17T16:13:36.279Z,16.15
2023-03-17T16:16:43.489Z,16.09
2023-03-17T16:19:45.211Z,16.01
2023-03-17T16:22:46.798Z,15.98
2023-03-17T16:25:48.621Z,16.05
2023-03-17T16:28:50.465Z,15.90
2023-03-17T16:31:51.946Z,15.91
2023-03-17T16:34:53.340Z,15.79
2023-03-17T16:37:55.479Z,15.70
2023-03-17T16:41:16.948Z,15.68
2023-03-17T16:44:20.897Z,15.69
2023-03-17T16:47:22.302Z,15.57
2023-03-17T16:50:26.463Z,15.45
2023-03-17T16:53:27.853Z,15.44
2023-03-17T16:56:29.853Z,15.41
2023-03-17T16:59:33.504Z,15.41
2023-03-17T17:02:35.092Z,15.37
2023-03-17T17:05:36.612Z,15.39
2023-03-17T17:08:38.013Z,15.35
2023-03-17T17:11:39.454Z,15.32
2023-03-17T17:14:41.425Z,15.25
2023-03-17T17:17:46.446Z,15.22
2023-03-17T17:20:48.920Z,15.20
2023-03-17T17:23:52.766Z,15.20
2023-03-17T17:26:54.462Z,15.12
2023-03-17T17:29:55.886Z,15.07
2023-03-17T17:32:59.235Z,14.98
2023-03-17T17:36:03.750Z,14.95
2023-03-17T17:39:06.670Z,14.85
2023-03-17T17:42:10.792Z,14.77
2023-03-17T17:45:13.866Z,14.73
2023-03-17T17:48:22.302Z,14.69
2023-03-17T17:51:23.748Z,14.63
2023-03-17T17:54:25.366Z,14.53
2023-03-17T17:57:27.995Z,14.45
2023-03-17T18:00:30.355Z,14.34
2023-03-17T18:03:32.281Z,14.25
2023-03-17T18:06:33.767Z,14.26
2023-03-17T18:09:35.584Z,14.20
2023-03-17T18:12:37.970Z,14.13
2023-03-17T18:15:39.634Z,14.08
2023-03-17T18:18:43.155Z,13.95
2023-03-17T18:21:46.021Z,13.86
2023-03-17T18:24:48.361Z,13.84
2023-03-17T18:27:49.949Z,13.83
2023-03-17T18:30:51.437Z,13.81
2023-03-17T18:33:57.746Z,13.78
2023-03-17T18:37:00.593Z,13.74
2023-03-17T18:40:14.249Z,13.71
2023-03-17T18:43:16.843Z,13.67
2023-03-17T18:46:18.387Z,13.49
2023-03-17T18:49:19.924Z,13.47
2023-03-17T18:52:21.863Z,13.45
2023-03-17T18:55:23.337Z,13.44
2023-03-17T18:58:25.296Z,13.44
2023-03-17T19:01:27.120Z,13.43
2023-03-17T19:04:28.536Z,13.43
2023-03-17T19:07:29.983Z,13.38
2023-03-17T19:10:31.638Z,13.35
2023-03-17T19:13:33.771Z,13.27
2023-03-17T19:16:35.586Z,13.24
2023-03-17T19:19:37.432Z,13.18
2023-03-17T19:22:40.126Z,13.19
2023-03-17T19:25:41.715Z,13.16
2023-03-17T19:28:43.309Z,13.15
2023-03-17T19:31:45.737Z,13.12
2023-03-17T19:34:48.842Z,13.09
2023-03-17T19:37:50.778Z,13.06
2023-03-17T19:40:52.945Z,13.04
2023-03-17T19:43:54.346Z,12.97
2023-03-17T19:46:55.779Z,12.93
2023-03-17T19:49:57.603Z,12.90
2023-03-17T19:52:59.021Z,12.77
2023-03-17T19:56:00.660Z,12.68
2023-03-17T19:59:02.184Z,12.64
2023-03-17T20:02:03.729Z,12.67
2023-03-17T20:05:06.501Z,12.66
2023-03-17T20:08:07.977Z,12.60
2023-03-17T20:11:11.457Z,12.51
2023-03-17T20:14:13.158Z,12.44
2023-03-17T20:17:15.277Z,12.44
2023-03-17T20:20:16.758Z,12.38
2023-03-17T20:23:18.788Z,12.31
2023-03-17T20:26:20.250Z,12.27
2023-03-17T20:29:21.653Z,12.28
2023-03-17T20:32:23.097Z,12.29
2023-03-17T20:35:27.261Z,12.30
2023-03-17T20:38:29.246Z,12.20
2023-03-17T20:41:30.977Z,12.09
2023-03-17T20:44:32.379Z,11.98
2023-03-17T20:47:33.804Z,11.94
2023-03-17T20:50:35.241Z,11.98
2023-03-17T20:53:36.689Z,11.97
2023-03-17T20:56:39.554Z,11.92
2023-03-17T20:59:41.910Z,11.93
2023-03-17T21:02:50.537Z,11.91
2023-03-17T21:05:53.327Z,11.87
2023-03-17T21:08:55.438Z,11.83
2023-03-17T21:11:56.890Z,11.77
2023-03-17T21:14:59.209Z,11.67
2023-03-17T21:18:00.703Z,11.58
2023-03-17T21:21:02.186Z,11.56
2023-03-17T21:24:05.417Z,11.59
2023-03-17T21:27:11.197Z,11.54
2023-03-17T21:30:14.396Z,11.51
2023-03-17T21:33:15.846Z,11.50
2023-03-17T21:36:17.624Z,11.44
2023-03-17T21:39:20.004Z,11.45
2023-03-17T21:42:21.491Z,11.46
2023-03-17T21:45:22.993Z,11.40
2023-03-17T21:48:24.482Z,11.37
2023-03-17T21:51:26.212Z,11.28
2023-03-17T21:54:28.406Z,11.22
2023-03-17T21:57:29.795Z,11.29
2023-03-17T22:00:42.684Z,11.31
2023-03-17T22:03:45.996Z,11.33
2023-03-17T22:06:47.428Z,11.32
2023-03-17T22:09:52.799Z,11.38
2023-03-17T22:12:54.191Z,11.39
2023-03-17T22:15:58.672Z,11.31
2023-03-17T22:19:00.271Z,11.27
2023-03-17T22:22:02.110Z,11.27
2023-03-17T22:25:06.093Z,11.21
2023-03-17T22:28:08.539Z,11.18
2023-03-17T22:31:12.228Z,11.21
2023-03-17T22:34:13.804Z,11.19
2023-03-17T22:37:15.199Z,11.19
2023-03-17T22:40:18.980Z,11.18
2023-03-17T22:43:20.396Z,11.25
2023-03-17T22:46:22.036Z,11.27
2023-03-17T22:49:23.797Z,11.27
2023-03-17T22:52:25.194Z,11.20
2023-03-17T22:55:26.578Z,11.18
2023-03-17T22:58:28.921Z,11.07
2023-03-17T23:01:31.602Z,11.01
2023-03-17T23:04:33.607Z,11.02
2023-03-17T23:07:49.465Z,10.97
2023-03-17T23:10:51.374Z,10.86
2023-03-17T23:13:53.634Z,10.83
2023-03-17T23:16:55.255Z,10.84
2023-03-17T23:19:56.781Z,10.85
2023-03-17T23:22:58.744Z,10.87
2023-03-17T23:26:00.361Z,10.83
2023-03-17T23:29:02.818Z,10.84
2023-03-17T23:32:04.528Z,10.84
2023-03-17T23:35:07.047Z,10.81
2023-03-17T23:38:08.647Z,10.80
2023-03-17T23:41:12.580Z,10.77
2023-03-17T23:44:14.292Z,10.76
2023-03-17T23:47:16.797Z,10.73
2023-03-17T23:50:19.396Z,10.69
2023-03-17T23:53:23.291Z,10.63
2023-03-17T23:56:24.861Z,10.64
2023-03-17T23:59:26.493Z,10.59
